Aviation Digital Data Service (ADDS)

Output produced by TAFs form (1409 UTC 26 July 2016)
found at http://aviationweather.gov/adds/tafs/
 
KASE 261127Z 2612/2712 20005KT P6SM SCT150 BKN200 
     FM261500 01004KT P6SM SCT200 
     FM261900 33008G18KT P6SM VCTS SCT070CB BKN120 
     FM270200 20008KT P6SM SCT080 BKN200 
     FM270600 18007KT P6SM SCT250